Time;durP1;ratioP1;P1;durP2;ratioP2;P2;SDS_P1;SDS_P2;PMS_P1;PMS_P2;Temp;Humidity;BMP_temperature;BMP_pressure;BME280_temperature;BME280_humidity;BME280_pressure;Samples;Min_cycle;Max_cycle;Signal;HPM_P1;HPM_P2
2022/04/10 00:00:00;;;;;;;;;43.75;40.50;;;;;-142.59;100.00;56100.38;5111605;27;49735;-60
2022/04/10 00:02:26;;;;;;;;;45.50;40.00;;;;;-142.59;100.00;56100.38;5111696;27;49694;-60
2022/04/10 00:04:51;;;;;;;;;44.00;40.75;;;;;-142.59;100.00;56100.38;5111969;27;50576;-60
2022/04/10 00:07:16;;;;;;;;;50.00;44.25;;;;;-142.59;100.00;56100.38;5110878;27;60590;-60
2022/04/10 00:09:42;;;;;;;;;47.00;40.00;;;;;-142.59;100.00;56100.38;5111371;27;49747;-59
2022/04/10 00:12:07;;;;;;;;;50.50;43.25;;;;;-142.59;100.00;56100.38;5111350;27;50199;-60
2022/04/10 00:14:33;;;;;;;;;52.75;44.00;;;;;-142.59;100.00;56100.38;5111742;27;49772;-59
2022/04/10 00:16:58;;;;;;;;;51.25;45.50;;;;;-142.59;100.00;56100.38;5111291;27;50776;-60
2022/04/10 00:19:23;;;;;;;;;55.00;41.25;;;;;-142.59;100.00;56100.38;5111153;27;49639;-59
2022/04/10 00:21:49;;;;;;;;;47.75;42.25;;;;;-142.59;100.00;56100.38;5111167;27;49990;-59
2022/04/10 00:24:14;;;;;;;;;49.75;44.00;;;;;-142.59;100.00;56100.38;5111449;27;49920;-59
2022/04/10 00:26:39;;;;;;;;;42.50;39.75;;;;;-142.59;100.00;56100.38;5110939;27;50489;-59
2022/04/10 00:29:06;;;;;;;;;51.50;44.00;;;;;-142.59;100.00;56100.38;5110991;27;49786;-59
2022/04/10 00:31:31;;;;;;;;;46.25;42.25;;;;;-142.59;100.00;56100.38;5111106;27;49787;-59
2022/04/10 00:33:56;;;;;;;;;44.50;40.50;;;;;-142.59;100.00;56100.38;5111317;27;49876;-59
2022/04/10 00:36:22;;;;;;;;;43.50;38.75;;;;;-142.59;100.00;56100.38;5110852;27;49802;-60
2022/04/10 00:38:47;;;;;;;;;47.25;41.75;;;;;-142.59;100.00;56100.38;5111279;27;49910;-60
2022/04/10 00:41:12;;;;;;;;;42.50;40.00;;;;;-142.59;100.00;56100.38;5110960;27;49729;-60
2022/04/10 00:43:39;;;;;;;;;44.25;39.50;;;;;-142.59;100.00;56100.38;5110853;27;49626;-60
2022/04/10 00:46:05;;;;;;;;;43.25;39.50;;;;;-142.59;100.00;56100.38;5110681;27;50694;-60
2022/04/10 00:48:31;;;;;;;;;41.50;39.50;;;;;-142.59;100.00;56100.38;5110372;27;49698;-60
2022/04/10 00:53:41;;;;;;;;;50.50;42.25;;;;;-142.59;100.00;56100.38;5091395;27;49773;-60
2022/04/10 00:56:07;;;;;;;;;38.75;38.00;;;;;-142.59;100.00;56100.38;5090789;27;50221;-59
2022/04/10 00:58:33;;;;;;;;;40.75;38.50;;;;;-142.59;100.00;56100.38;5090692;27;49666;-59
2022/04/10 01:00:58;;;;;;;;;38.00;36.25;;;;;-142.59;100.00;56100.38;5090861;27;49827;-59
2022/04/10 01:03:23;;;;;;;;;33.75;30.75;;;;;-142.59;100.00;56100.38;5091278;27;49629;-59
2022/04/10 01:05:49;;;;;;;;;43.75;42.50;;;;;-142.59;100.00;56100.38;5090623;27;53089;-60
2022/04/10 01:08:18;;;;;;;;;50.00;42.75;;;;;-142.59;100.00;56100.38;5090972;27;49817;-59
2022/04/10 01:10:44;;;;;;;;;43.25;39.25;;;;;-142.59;100.00;56100.38;5094239;27;49642;-60
2022/04/10 01:13:10;;;;;;;;;50.00;43.00;;;;;-142.59;100.00;56100.38;5094557;27;50205;-59
2022/04/10 01:15:37;;;;;;;;;46.25;43.50;;;;;-142.59;100.00;56100.38;5094098;27;50033;-59
2022/04/10 01:18:04;;;;;;;;;46.75;40.25;;;;;-142.59;100.00;56100.38;5094330;27;50508;-59
2022/04/10 01:20:31;;;;;;;;;42.00;39.25;;;;;-142.59;100.00;56100.38;5107676;27;49818;-60
2022/04/10 01:22:58;;;;;;;;;38.00;38.00;;;;;-142.59;100.00;56100.38;5114347;27;49905;-60
2022/04/10 01:25:23;;;;;;;;;47.00;43.50;;;;;-142.59;100.00;56100.38;5114075;27;49919;-59
2022/04/10 01:27:48;;;;;;;;;45.75;41.75;;;;;-142.59;100.00;56100.38;5113762;27;49788;-60
2022/04/10 01:30:15;;;;;;;;;42.75;40.25;;;;;-142.59;100.00;56100.38;5114091;27;49792;-59
2022/04/10 01:32:40;;;;;;;;;50.00;42.75;;;;;-142.59;100.00;56100.38;5114175;27;49851;-60
2022/04/10 01:35:06;;;;;;;;;43.25;40.00;;;;;-142.59;100.00;56100.38;5113630;27;49615;-59
2022/04/10 01:37:34;;;;;;;;;51.75;44.25;;;;;-142.59;100.00;56100.38;5113073;27;49873;-59
2022/04/10 01:40:00;;;;;;;;;48.25;43.50;;;;;-142.59;100.00;56100.38;5113828;27;49672;-59
2022/04/10 01:42:25;;;;;;;;;41.75;39.25;;;;;-142.59;100.00;56100.38;5113705;27;50230;-59
2022/04/10 01:44:50;;;;;;;;;47.50;43.75;;;;;-142.59;100.00;56100.38;5113613;27;49867;-59
2022/04/10 01:47:16;;;;;;;;;43.50;41.00;;;;;-142.59;100.00;56100.38;5113916;27;49726;-59
2022/04/10 01:49:41;;;;;;;;;41.50;40.00;;;;;-142.59;100.00;56100.38;5113712;27;50005;-60
2022/04/10 01:52:07;;;;;;;;;44.25;40.25;;;;;-142.59;100.00;56100.38;5113766;27;50069;-60
2022/04/10 01:54:33;;;;;;;;;45.50;39.25;;;;;-142.59;100.00;56100.38;5113214;27;49715;-60
2022/04/10 01:56:58;;;;;;;;;49.00;40.50;;;;;-142.59;100.00;56100.38;5112743;27;49868;-62
2022/04/10 01:59:23;;;;;;;;;50.00;43.75;;;;;-142.59;100.00;56100.38;5113715;27;49672;-60
2022/04/10 02:01:49;;;;;;;;;45.50;40.50;;;;;-142.59;100.00;56100.38;5113699;27;49767;-60
2022/04/10 02:04:15;;;;;;;;;39.25;36.75;;;;;-142.59;100.00;56100.38;5113451;27;50971;-59
2022/04/10 02:06:41;;;;;;;;;56.00;43.00;;;;;-142.59;100.00;56100.38;5113073;27;50597;-60
2022/04/10 02:09:09;;;;;;;;;44.50;39.75;;;;;-142.59;100.00;56100.38;5113510;27;49842;-60
2022/04/10 02:11:35;;;;;;;;;38.25;36.00;;;;;-142.59;100.00;56100.38;5113192;27;49896;-60
2022/04/10 02:14:00;;;;;;;;;46.75;42.25;;;;;-142.59;100.00;56100.38;5113101;27;50626;-59
2022/04/10 02:16:25;;;;;;;;;46.00;42.00;;;;;-142.59;100.00;56100.38;5113465;27;49698;-59
2022/04/10 02:18:51;;;;;;;;;47.50;43.00;;;;;-142.59;100.00;56100.38;5113261;27;49743;-59
2022/04/10 02:21:16;;;;;;;;;56.25;45.00;;;;;-142.59;100.00;56100.38;5113082;27;50027;-59
2022/04/10 02:23:43;;;;;;;;;42.00;40.25;;;;;-142.59;100.00;56100.38;5113065;27;49806;-60
2022/04/10 02:26:10;;;;;;;;;39.25;38.50;;;;;-142.59;100.00;56100.38;5112965;27;49823;-60
2022/04/10 02:28:36;;;;;;;;;49.00;43.00;;;;;-142.59;100.00;56100.38;5112705;27;49847;-60
2022/04/10 02:31:01;;;;;;;;;45.50;36.75;;;;;-142.59;100.00;56100.38;5113073;27;49628;-59
2022/04/10 02:33:27;;;;;;;;;45.00;37.75;;;;;-142.59;100.00;56100.38;5112649;27;49963;-60
2022/04/10 02:35:52;;;;;;;;;44.75;42.25;;;;;-142.59;100.00;56100.38;5112634;27;49640;-60
2022/04/10 02:38:18;;;;;;;;;48.50;41.75;;;;;-142.59;100.00;56100.38;5113346;27;49847;-60
2022/04/10 02:40:44;;;;;;;;;45.50;41.50;;;;;-142.59;100.00;56100.38;5112691;27;49836;-59
2022/04/10 02:43:14;;;;;;;;;43.00;40.75;;;;;-142.59;100.00;56100.38;5112318;27;50956;-59
2022/04/10 02:45:40;;;;;;;;;35.50;33.50;;;;;-142.59;100.00;56100.38;5112751;27;49961;-60
2022/04/10 02:48:06;;;;;;;;;45.25;43.00;;;;;-142.59;100.00;56100.38;5112728;27;49877;-60
2022/04/10 02:50:31;;;;;;;;;45.75;40.00;;;;;-142.59;100.00;56100.38;5112807;27;49671;-59
2022/04/10 02:52:57;;;;;;;;;49.75;41.50;;;;;-142.59;100.00;56100.38;5112507;27;49818;-59
2022/04/10 02:55:22;;;;;;;;;48.00;44.25;;;;;-142.59;100.00;56100.38;5112404;27;51720;-60
2022/04/10 02:57:47;;;;;;;;;44.25;40.50;;;;;-142.59;100.00;56100.38;5112218;27;49806;-59
2022/04/10 03:00:13;;;;;;;;;43.00;39.00;;;;;-142.59;100.00;56100.38;5112621;27;49952;-60
2022/04/10 03:02:40;;;;;;;;;45.25;40.25;;;;;-142.59;100.00;56100.38;5112350;27;50458;-59
2022/04/10 03:05:09;;;;;;;;;32.00;29.75;;;;;-142.59;100.00;56100.38;5112484;27;49792;-60
2022/04/10 03:07:34;;;;;;;;;46.25;40.75;;;;;-142.59;100.00;56100.38;5112355;27;49737;-60
2022/04/10 03:09:59;;;;;;;;;37.00;35.00;;;;;-142.59;100.00;56100.38;5112262;27;49597;-60
2022/04/10 03:12:25;;;;;;;;;44.25;41.25;;;;;-142.59;100.00;56100.38;5111513;27;59735;-59
2022/04/10 03:14:50;;;;;;;;;37.50;37.50;;;;;-142.59;100.00;56100.38;5112508;27;49793;-57
2022/04/10 03:17:15;;;;;;;;;34.25;34.00;;;;;-142.59;100.00;56100.38;5112411;27;50040;-59
2022/04/10 03:19:40;;;;;;;;;47.75;37.75;;;;;-142.59;100.00;56100.38;5112519;27;49905;-59
2022/04/10 03:22:06;;;;;;;;;34.25;30.25;;;;;-142.59;100.00;56100.38;5111951;27;49708;-59
2022/04/10 03:24:31;;;;;;;;;41.00;37.50;;;;;-142.59;100.00;56100.38;5111845;27;49706;-59
2022/04/10 03:26:57;;;;;;;;;31.75;29.50;;;;;-142.59;100.00;56100.38;5111788;27;49714;-59
2022/04/10 03:29:22;;;;;;;;;31.75;30.50;;;;;-142.59;100.00;56100.38;5112360;27;49686;-59
2022/04/10 03:31:47;;;;;;;;;30.00;28.25;;;;;-142.59;100.00;56100.38;5110685;27;54704;-59
2022/04/10 03:34:13;;;;;;;;;38.00;34.25;;;;;-142.59;100.00;56100.38;5112253;27;49756;-60
2022/04/10 03:36:38;;;;;;;;;41.25;35.25;;;;;-142.59;100.00;56100.38;5111936;27;49794;-60
2022/04/10 03:39:04;;;;;;;;;40.00;39.25;;;;;-142.59;100.00;56100.38;5111900;27;49708;-60
2022/04/10 03:41:29;;;;;;;;;38.50;33.50;;;;;-142.59;100.00;56100.38;5111439;27;51444;-59
2022/04/10 03:43:55;;;;;;;;;45.25;40.75;;;;;-142.59;100.00;56100.38;5111359;27;49853;-59
2022/04/10 03:46:20;;;;;;;;;45.75;41.25;;;;;-142.59;100.00;56100.38;5111679;27;49556;-60
2022/04/10 03:48:45;;;;;;;;;37.75;36.75;;;;;-142.59;100.00;56100.38;5111968;27;49939;-60
2022/04/10 03:51:10;;;;;;;;;42.25;32.50;;;;;-142.59;100.00;56100.38;5111562;27;50959;-60
2022/04/10 03:53:36;;;;;;;;;35.00;33.25;;;;;-142.59;100.00;56100.38;5111643;27;49812;-60
2022/04/10 03:56:02;;;;;;;;;42.25;36.00;;;;;-142.59;100.00;56100.38;5111541;27;49802;-59
2022/04/10 03:58:27;;;;;;;;;43.00;39.00;;;;;-142.59;100.00;56100.38;5111584;27;49861;-60
2022/04/10 04:00:53;;;;;;;;;43.25;34.75;;;;;-142.59;100.00;56100.38;5111558;27;50297;-60
2022/04/10 04:03:18;;;;;;;;;46.00;39.50;;;;;-142.59;100.00;56100.38;5111612;27;49893;-59
2022/04/10 04:05:44;;;;;;;;;42.75;40.75;;;;;-142.59;100.00;56100.38;5111644;27;49963;-59
2022/04/10 04:08:09;;;;;;;;;49.00;39.50;;;;;-142.59;100.00;56100.38;5111591;27;49783;-60
2022/04/10 04:10:35;;;;;;;;;43.00;40.00;;;;;-142.59;100.00;56100.38;5111296;27;50185;-59
2022/04/10 04:13:01;;;;;;;;;50.25;41.75;;;;;-142.59;100.00;56100.38;5111434;27;49824;-60
2022/04/10 04:15:26;;;;;;;;;40.25;36.50;;;;;-142.59;100.00;56100.38;5111271;27;50107;-59
2022/04/10 04:17:52;;;;;;;;;35.75;32.75;;;;;-142.59;100.00;56100.38;5111005;27;50037;-59
2022/04/10 04:20:17;;;;;;;;;41.50;35.00;;;;;-142.59;100.00;56100.38;5110971;27;57197;-59
2022/04/10 04:22:43;;;;;;;;;38.50;38.00;;;;;-142.59;100.00;56100.38;5110998;27;49814;-60
2022/04/10 04:25:08;;;;;;;;;38.75;30.75;;;;;-142.59;100.00;56100.38;5110499;27;49722;-60
2022/04/10 04:27:34;;;;;;;;;36.50;31.25;;;;;-142.59;100.00;56100.38;5111355;27;49647;-59
2022/04/10 04:30:01;;;;;;;;;37.75;37.25;;;;;-142.59;100.00;56100.38;5110587;27;57765;-60
2022/04/10 04:32:27;;;;;;;;;33.00;30.25;;;;;-142.59;100.00;56100.38;5111193;27;49684;-59
2022/04/10 04:34:52;;;;;;;;;29.50;29.25;;;;;-142.59;100.00;56100.38;5111214;27;49672;-59
2022/04/10 04:37:18;;;;;;;;;37.75;35.75;;;;;-142.59;100.00;56100.38;5110750;27;49699;-59
2022/04/10 04:39:43;;;;;;;;;38.75;38.25;;;;;-142.59;100.00;56100.38;5110841;27;50623;-60
2022/04/10 04:42:08;;;;;;;;;30.00;29.00;;;;;-142.59;100.00;56100.38;5111226;27;49994;-59
2022/04/10 04:44:34;;;;;;;;;34.75;32.75;;;;;-142.59;100.00;56100.38;5110599;27;49683;-59
2022/04/10 04:46:59;;;;;;;;;43.75;36.75;;;;;-142.59;100.00;56100.38;5097441;27;49905;-60
2022/04/10 04:49:27;;;;;;;;;38.00;35.50;;;;;-142.59;100.00;56100.38;5091143;27;49899;-59
2022/04/10 04:51:53;;;;;;;;;39.00;32.25;;;;;-142.59;100.00;56100.38;5091028;27;49764;-59
2022/04/10 04:54:18;;;;;;;;;36.75;31.50;;;;;-142.59;100.00;56100.38;5090972;27;49720;-59
2022/04/10 04:56:44;;;;;;;;;35.00;33.00;;;;;-142.59;100.00;56100.38;5090915;27;50021;-60
2022/04/10 04:59:10;;;;;;;;;34.50;29.75;;;;;-142.59;100.00;56100.38;5090714;27;49770;-61
2022/04/10 05:01:35;;;;;;;;;34.50;28.50;;;;;-142.59;100.00;56100.38;5090890;27;49974;-59
2022/04/10 05:04:01;;;;;;;;;32.50;30.25;;;;;-142.59;100.00;56100.38;5091307;27;49884;-59
2022/04/10 05:06:27;;;;;;;;;37.75;33.00;;;;;-142.59;100.00;56100.38;5091323;27;49866;-60
2022/04/10 05:08:52;;;;;;;;;35.25;32.25;;;;;-142.59;100.00;56100.38;5090768;27;50540;-60
2022/04/10 05:11:18;;;;;;;;;36.00;32.25;;;;;-142.59;100.00;56100.38;5090760;27;50013;-59
2022/04/10 05:13:44;;;;;;;;;36.50;31.50;;;;;-142.59;100.00;56100.38;5090671;27;49924;-59
2022/04/10 05:16:09;;;;;;;;;40.00;32.50;;;;;-142.59;100.00;56100.38;5090905;27;49851;-59
2022/04/10 05:18:35;;;;;;;;;34.50;32.75;;;;;-142.59;100.00;56100.38;5090736;27;49892;-58
2022/04/10 05:21:01;;;;;;;;;29.75;27.75;;;;;-142.59;100.00;56100.38;5090752;27;49821;-59
2022/04/10 05:23:26;;;;;;;;;31.50;28.00;;;;;-142.59;100.00;56100.38;5091247;27;50071;-59
2022/04/10 05:25:52;;;;;;;;;37.00;32.75;;;;;-142.59;100.00;56100.38;5091025;27;50028;-59
2022/04/10 05:28:17;;;;;;;;;36.25;35.25;;;;;-142.59;100.00;56100.38;5090644;27;50442;-59
2022/04/10 05:30:43;;;;;;;;;42.75;34.25;;;;;-142.59;100.00;56100.38;5090300;27;50164;-59
2022/04/10 05:33:10;;;;;;;;;37.75;32.00;;;;;-142.59;100.00;56100.38;5090664;27;49795;-59
2022/04/10 05:35:36;;;;;;;;;38.00;33.50;;;;;-142.59;100.00;56100.38;5090869;27;49969;-59
2022/04/10 05:38:02;;;;;;;;;37.50;34.75;;;;;-142.59;100.00;56100.38;5090255;27;50804;-59
2022/04/10 05:40:27;;;;;;;;;41.00;37.00;;;;;-142.59;100.00;56100.38;5090688;27;49635;-57
2022/04/10 05:42:53;;;;;;;;;31.00;25.50;;;;;-142.59;100.00;56100.38;5090685;27;49802;-59
2022/04/10 05:45:18;;;;;;;;;36.50;32.00;;;;;-142.59;100.00;56100.38;5090359;27;49710;-59
2022/04/10 05:47:44;;;;;;;;;36.50;35.25;;;;;-142.59;100.00;56100.38;5109945;27;52893;-60
2022/04/10 05:50:11;;;;;;;;;43.25;33.00;;;;;-142.59;100.00;56100.38;5109882;27;49920;-59
2022/04/10 05:52:41;;;;;;;;;41.25;36.50;;;;;-142.59;100.00;56100.38;5110009;27;50251;-60
2022/04/10 05:55:08;;;;;;;;;39.25;30.50;;;;;-142.59;100.00;56100.38;5111085;27;49902;-59
2022/04/10 05:57:33;;;;;;;;;37.00;32.50;;;;;-142.59;100.00;56100.38;5113285;27;50508;-59
2022/04/10 05:59:59;;;;;;;;;34.75;32.00;;;;;-142.59;100.00;56100.38;5113294;27;49796;-59
2022/04/10 06:02:24;;;;;;;;;31.75;28.75;;;;;-142.59;100.00;56100.38;5113337;27;49756;-59
2022/04/10 06:04:49;;;;;;;;;43.75;36.50;;;;;-142.59;100.00;56100.38;5113741;27;50035;-59
2022/04/10 06:07:15;;;;;;;;;30.75;28.75;;;;;-142.59;100.00;56100.38;5113165;27;49717;-60
2022/04/10 06:09:40;;;;;;;;;31.00;31.00;;;;;-142.59;100.00;56100.38;5113251;27;49986;-59
2022/04/10 06:12:06;;;;;;;;;34.50;31.25;;;;;-142.59;100.00;56100.38;5113560;27;49840;-59
2022/04/10 06:14:31;;;;;;;;;37.00;33.75;;;;;-142.59;100.00;56100.38;5113602;27;50025;-60
2022/04/10 06:16:57;;;;;;;;;33.25;29.00;;;;;-142.59;100.00;56100.38;5113197;27;50372;-60
2022/04/10 06:19:23;;;;;;;;;30.25;28.25;;;;;-142.59;100.00;56100.38;5113242;27;49894;-60
2022/04/10 06:21:48;;;;;;;;;29.75;29.75;;;;;-142.59;100.00;56100.38;5113240;27;49806;-60
2022/04/10 06:24:13;;;;;;;;;26.75;24.75;;;;;-142.59;100.00;56100.38;5113303;27;49687;-59
2022/04/10 06:26:40;;;;;;;;;39.50;33.75;;;;;-142.59;100.00;56100.38;5112785;27;49701;-59
2022/04/10 06:29:06;;;;;;;;;44.75;39.25;;;;;-142.59;100.00;56100.38;5112871;27;49743;-59
2022/04/10 06:31:31;;;;;;;;;29.50;28.50;;;;;-142.59;100.00;56100.38;5113328;27;49825;-59
2022/04/10 06:33:57;;;;;;;;;36.00;33.50;;;;;-142.59;100.00;56100.38;5113261;27;49714;-59
2022/04/10 06:36:23;;;;;;;;;36.50;32.25;;;;;-142.59;100.00;56100.38;5112924;27;49850;-59
2022/04/10 06:38:49;;;;;;;;;36.00;32.75;;;;;-142.59;100.00;56100.38;5112987;27;50032;-60
2022/04/10 06:41:15;;;;;;;;;29.00;27.50;;;;;-142.59;100.00;56100.38;5112461;27;49806;-59
2022/04/10 06:43:40;;;;;;;;;38.25;31.50;;;;;-142.59;100.00;56100.38;5112970;27;49854;-60
2022/04/10 06:46:06;;;;;;;;;33.00;31.75;;;;;-142.59;100.00;56100.38;5112539;27;53792;-59
2022/04/10 06:48:32;;;;;;;;;38.50;33.50;;;;;-142.59;100.00;56100.38;5112388;27;49764;-60
2022/04/10 06:50:57;;;;;;;;;40.25;35.75;;;;;-142.59;100.00;56100.38;5112893;27;49653;-59
2022/04/10 06:53:22;;;;;;;;;33.50;30.50;;;;;-142.59;100.00;56100.38;5113012;27;49765;-59
2022/04/10 06:55:48;;;;;;;;;27.75;27.75;;;;;-142.59;100.00;56100.38;5112398;27;50706;-59
2022/04/10 06:58:13;;;;;;;;;36.25;31.25;;;;;-142.59;100.00;56100.38;5112656;27;49846;-59
2022/04/10 07:00:40;;;;;;;;;35.00;33.50;;;;;-142.59;100.00;56100.38;5112436;27;49970;-60
2022/04/10 07:03:06;;;;;;;;;39.25;31.50;;;;;-142.59;100.00;56100.38;5112357;27;50060;-60
2022/04/10 07:05:31;;;;;;;;;33.75;29.75;;;;;-142.59;100.00;56100.38;5112397;27;50198;-59
2022/04/10 07:07:56;;;;;;;;;31.75;29.50;;;;;-142.59;100.00;56100.38;5112538;27;49766;-59
2022/04/10 07:10:22;;;;;;;;;36.75;29.00;;;;;-142.59;100.00;56100.38;5112744;27;49883;-59
2022/04/10 07:12:47;;;;;;;;;34.75;34.25;;;;;-142.59;100.00;56100.38;5112800;27;49878;-60
2022/04/10 07:15:13;;;;;;;;;35.25;34.50;;;;;-142.59;100.00;56100.38;5111863;27;50567;-59
2022/04/10 07:17:38;;;;;;;;;36.00;32.00;;;;;-142.59;100.00;56100.38;5111974;27;49799;-59
2022/04/10 07:20:04;;;;;;;;;43.25;39.00;;;;;-142.59;100.00;56100.38;5112350;27;50048;-60
2022/04/10 07:25:13;;;;;;;;;53.75;44.50;;;;;-142.59;100.00;56100.38;5112084;27;49796;-59
2022/04/10 07:27:39;;;;;;;;;50.50;44.50;;;;;-142.59;100.00;56100.38;5112353;27;49907;-59
2022/04/10 07:30:04;;;;;;;;;48.50;43.25;;;;;-142.59;100.00;56100.38;5112062;27;50035;-59
2022/04/10 07:32:30;;;;;;;;;38.75;37.50;;;;;-142.59;100.00;56100.38;5112154;27;49920;-59
2022/04/10 07:34:55;;;;;;;;;50.00;44.00;;;;;-142.59;100.00;56100.38;5112117;27;50539;-59
2022/04/10 07:37:21;;;;;;;;;48.00;43.75;;;;;-142.59;100.00;56100.38;5111818;27;49834;-59
2022/04/10 07:39:46;;;;;;;;;48.25;40.00;;;;;-142.59;100.00;56100.38;5112036;27;49630;-59
2022/04/10 07:42:11;;;;;;;;;57.75;47.00;;;;;-142.59;100.00;56100.38;5112157;27;49736;-59
2022/04/10 07:44:37;;;;;;;;;44.50;40.75;;;;;-142.59;100.00;56100.38;5114124;27;49823;-59
2022/04/10 07:49:47;;;;;;;;;51.75;44.00;;;;;-142.59;100.00;56100.38;5116666;27;49813;-59
2022/04/10 07:52:13;;;;;;;;;55.25;44.00;;;;;-142.59;100.00;56100.38;5112974;27;49889;-59
2022/04/10 07:54:39;;;;;;;;;40.75;39.50;;;;;-142.59;100.00;56100.38;5115493;27;49927;-60
2022/04/10 07:57:05;;;;;;;;;51.75;46.75;;;;;-142.59;100.00;56100.38;5126017;27;49964;-71
2022/04/10 07:59:30;;;;;;;;;54.00;44.00;;;;;-142.59;100.00;56100.38;5127474;27;49456;-62
2022/04/10 08:01:55;;;;;;;;;52.00;44.75;;;;;-142.59;100.00;56100.38;5128311;27;49447;-63
2022/04/10 08:04:21;;;;;;;;;45.75;38.75;;;;;-142.59;100.00;56100.38;5127290;27;49449;-68
2022/04/10 08:06:46;;;;;;;;;43.75;41.25;;;;;-142.59;100.00;56100.38;5127715;27;57521;-61
2022/04/10 08:09:11;;;;;;;;;47.50;41.50;;;;;-142.59;100.00;56100.38;5126397;27;50044;-61
2022/04/10 08:11:37;;;;;;;;;42.25;37.00;;;;;-142.59;100.00;56100.38;5116395;27;49458;-64
2022/04/10 08:14:02;;;;;;;;;44.00;39.25;;;;;-142.59;100.00;56100.38;5125246;27;49394;-63
2022/04/10 08:16:27;;;;;;;;;39.75;37.75;;;;;-142.59;100.00;56100.38;5126598;27;50213;-61
2022/04/10 08:18:53;;;;;;;;;36.50;33.75;;;;;-142.59;100.00;56100.38;5126805;27;49313;-66
2022/04/10 08:21:19;;;;;;;;;35.75;30.75;;;;;-142.59;100.00;56100.38;5107164;27;49851;-61
2022/04/10 08:23:44;;;;;;;;;37.50;37.50;;;;;-142.59;100.00;56100.38;5091519;27;49713;-62
2022/04/10 08:26:09;;;;;;;;;45.00;38.00;;;;;-142.59;100.00;56100.38;5095658;27;49838;-61
2022/04/10 08:28:35;;;;;;;;;39.25;33.50;;;;;-142.59;100.00;56100.38;5098514;27;50025;-63
2022/04/10 08:31:00;;;;;;;;;31.50;31.50;;;;;-142.59;100.00;56100.38;5105041;27;49877;-61
2022/04/10 08:33:26;;;;;;;;;36.50;33.25;;;;;-142.59;100.00;56100.38;5107558;27;49712;-61
2022/04/10 08:35:51;;;;;;;;;33.50;32.25;;;;;-142.59;100.00;56100.38;5107665;27;49561;-62
2022/04/10 08:38:16;;;;;;;;;37.00;34.75;;;;;-142.59;100.00;56100.38;5106967;27;49379;-60
2022/04/10 08:40:45;;;;;;;;;41.00;37.25;;;;;-142.59;100.00;56100.38;5107550;27;49657;-60
2022/04/10 08:43:11;;;;;;;;;43.00;38.00;;;;;-142.59;100.00;56100.38;5106647;27;50148;-60
2022/04/10 08:45:37;;;;;;;;;33.00;30.75;;;;;-142.59;100.00;56100.38;5107880;27;49447;-60
2022/04/10 08:48:04;;;;;;;;;40.00;35.00;;;;;-142.59;100.00;56100.38;5107794;27;49755;-59
2022/04/10 08:50:30;;;;;;;;;37.00;32.00;;;;;-142.59;100.00;56100.38;5106754;27;49315;-60
2022/04/10 08:52:59;;;;;;;;;32.25;28.50;;;;;-142.59;100.00;56100.38;5107511;27;50046;-63
2022/04/10 08:55:25;;;;;;;;;37.75;33.75;;;;;-142.59;100.00;56100.38;5106462;27;49531;-72
2022/04/10 08:57:50;;;;;;;;;35.00;33.25;;;;;-142.59;100.00;56100.38;5107391;27;49498;-64
2022/04/10 09:00:18;;;;;;;;;33.25;31.50;;;;;-142.59;100.00;56100.38;5106693;27;49703;-61
2022/04/10 09:02:47;;;;;;;;;36.75;33.75;;;;;-142.59;100.00;56100.38;5105059;27;49687;-76
2022/04/10 09:05:18;;;;;;;;;36.25;34.25;;;;;-142.59;100.00;56100.38;5109327;27;49835;-64
2022/04/10 09:08:08;;;;;;;;;36.00;34.00;;;;;-142.59;100.00;56100.38;5107527;27;49399;-64
2022/04/10 09:11:00;;;;;;;;;35.00;33.00;;;;;-142.59;100.00;56100.38;5107786;27;49297;-63
2022/04/10 09:13:36;;;;;;;;;23.00;20.00;;;;;-142.59;100.00;56100.38;5108828;27;50076;-63
2022/04/10 09:16:22;;;;;;;;;15.75;14.50;;;;;-142.59;100.00;56100.38;5105368;27;49808;-63
2022/04/10 09:18:49;;;;;;;;;17.50;15.50;;;;;-142.59;100.00;56100.38;5107103;27;49687;-63
2022/04/10 09:21:15;;;;;;;;;18.75;14.75;;;;;-142.59;100.00;56100.38;5106940;27;49526;-67
2022/04/10 09:23:41;;;;;;;;;14.00;12.25;;;;;-142.59;100.00;56100.38;5105791;27;52470;-65
2022/04/10 09:26:06;;;;;;;;;16.50;15.50;;;;;-142.59;100.00;56100.38;5102876;27;49795;-64
2022/04/10 09:28:46;;;;;;;;;11.50;11.00;;;;;-142.59;100.00;56100.38;5100591;27;49486;-66
2022/04/10 09:31:35;;;;;;;;;13.75;11.00;;;;;-142.59;100.00;56100.38;5107742;27;49609;-67
2022/04/10 09:34:06;;;;;;;;;11.50;11.00;;;;;-142.59;100.00;56100.38;5111110;27;50467;-67
2022/04/10 09:36:35;;;;;;;;;11.50;11.00;;;;;-142.59;100.00;56100.38;5110679;27;49241;-65
2022/04/10 09:39:04;;;;;;;;;11.50;10.50;;;;;-142.59;100.00;56100.38;5111283;27;49467;-66
2022/04/10 09:41:29;;;;;;;;;12.00;11.00;;;;;-142.59;100.00;56100.38;5110740;27;49669;-70
2022/04/10 09:44:17;;;;;;;;;17.50;13.25;;;;;-142.59;100.00;56100.38;5110107;27;50336;-65
2022/04/10 09:46:43;;;;;;;;;10.75;9.00;;;;;-142.59;100.00;56100.38;5110253;27;49625;-65
2022/04/10 09:49:18;;;;;;;;;9.75;7.00;;;;;-142.59;100.00;56100.38;5110164;27;49390;-65
2022/04/10 09:52:04;;;;;;;;;10.75;7.25;;;;;-142.59;100.00;56100.38;5122978;27;49435;-77
2022/04/10 09:54:43;;;;;;;;;11.25;11.25;;;;;-142.59;100.00;56100.38;5113149;27;50039;-66
2022/04/10 09:57:13;;;;;;;;;10.25;10.25;;;;;-142.59;100.00;56100.38;5110126;27;49764;-65
2022/04/10 09:59:52;;;;;;;;;9.00;7.50;;;;;-142.59;100.00;56100.38;5108573;27;49690;-65
2022/04/10 10:02:24;;;;;;;;;13.00;11.00;;;;;-142.59;100.00;56100.38;5110302;27;49326;-65
2022/04/10 10:04:49;;;;;;;;;11.25;8.75;;;;;-142.59;100.00;56100.38;5110413;27;49751;-65
2022/04/10 10:07:20;;;;;;;;;10.00;8.50;;;;;-142.59;100.00;56100.38;5110882;27;49489;-66
2022/04/10 10:09:46;;;;;;;;;8.75;7.75;;;;;-142.59;100.00;56100.38;5114589;27;49820;-65
2022/04/10 10:12:13;;;;;;;;;7.50;7.50;;;;;-142.59;100.00;56100.38;5121259;27;50322;-65
2022/04/10 10:14:39;;;;;;;;;7.25;7.25;;;;;-142.59;100.00;56100.38;5114983;27;49491;-67
2022/04/10 10:17:07;;;;;;;;;8.50;6.50;;;;;-142.59;100.00;56100.38;5109446;27;49851;-66
2022/04/10 10:19:34;;;;;;;;;6.75;6.75;;;;;-142.59;100.00;56100.38;5109081;27;49356;-65
2022/04/10 10:22:03;;;;;;;;;5.25;5.25;;;;;-142.59;100.00;56100.38;5110993;27;49778;-66
2022/04/10 10:24:36;;;;;;;;;7.25;7.25;;;;;-142.59;100.00;56100.38;5103820;27;51434;-66
2022/04/10 10:27:20;;;;;;;;;8.50;7.50;;;;;-142.59;100.00;56100.38;5109394;27;49376;-67
2022/04/10 10:30:23;;;;;;;;;6.75;6.75;;;;;-142.59;100.00;56100.38;5106874;27;49549;-66
2022/04/10 10:32:55;;;;;;;;;7.00;7.00;;;;;-142.59;100.00;56100.38;5110032;27;49209;-65
2022/04/10 10:35:34;;;;;;;;;7.25;6.50;;;;;-142.59;100.00;56100.38;5096742;27;49715;-65
2022/04/10 10:38:00;;;;;;;;;10.25;7.00;;;;;-142.59;100.00;56100.38;5099526;27;49772;-64
2022/04/10 10:40:26;;;;;;;;;9.50;8.75;;;;;-142.59;100.00;56100.38;5092548;27;49875;-64
2022/04/10 10:42:55;;;;;;;;;7.75;7.75;;;;;-142.59;100.00;56100.38;5093261;27;50077;-68
2022/04/10 10:45:41;;;;;;;;;7.00;7.00;;;;;-142.59;100.00;56100.38;5092113;27;49748;-64
2022/04/10 10:48:31;;;;;;;;;6.25;6.00;;;;;-142.59;100.00;56100.38;5093043;27;49710;-67
2022/04/10 10:51:01;;;;;;;;;7.50;7.50;;;;;-142.59;100.00;56100.38;5092387;27;49866;-63
2022/04/10 10:53:46;;;;;;;;;8.00;8.00;;;;;-142.59;100.00;56100.38;5093070;27;50048;-63
2022/04/10 10:56:15;;;;;;;;;6.00;6.00;;;;;-142.59;100.00;56100.38;5095229;27;49685;-64
2022/04/10 10:58:41;;;;;;;;;6.25;6.25;;;;;-142.59;100.00;56100.38;5092423;27;49806;-62
2022/04/10 11:01:07;;;;;;;;;6.25;4.00;;;;;-142.59;100.00;56100.38;5093582;27;49912;-62